createdAt,value
2023-03-21T00:03:10.618Z,27.44
2023-03-21T00:08:10.931Z,27.17
2023-03-21T00:13:09.388Z,26.77
2023-03-21T00:18:09.482Z,26.12
2023-03-21T00:23:07.762Z,26.23
2023-03-21T00:28:08.864Z,26.67
2023-03-21T00:33:21.705Z,26.23
2023-03-21T00:38:06.388Z,25.99
2023-03-21T00:43:04.686Z,25.83
2023-03-21T00:48:04.034Z,26.06
2023-03-21T00:53:04.134Z,25.85
2023-03-21T00:58:02.755Z,24.96
2023-03-21T01:03:11.278Z,24.53
2023-03-21T01:08:01.835Z,23.94
2023-03-21T01:13:01.172Z,23.58
2023-03-21T01:17:58.365Z,23.16
2023-03-21T01:22:57.528Z,22.76
2023-03-21T01:27:57.662Z,22.49
2023-03-21T01:32:56.778Z,22.05
2023-03-21T01:37:56.107Z,21.96
2023-03-21T01:42:55.431Z,21.91
2023-03-21T01:47:54.783Z,21.59
2023-03-21T01:52:53.900Z,20.95
2023-03-21T01:58:04.403Z,20.70
2023-03-21T02:02:52.805Z,20.62
2023-03-21T02:07:52.736Z,20.43
2023-03-21T02:12:51.020Z,20.33
2023-03-21T02:17:50.336Z,20.18
2023-03-21T02:22:48.626Z,20.03
2023-03-21T02:27:50.953Z,19.83
2023-03-21T02:32:48.276Z,19.94
2023-03-21T02:37:55.172Z,19.78
2023-03-21T02:42:54.800Z,19.63
2023-03-21T02:47:46.877Z,19.55
2023-03-21T02:52:45.178Z,19.41
2023-03-21T02:57:44.521Z,19.39
2023-03-21T03:02:43.755Z,19.32
2023-03-21T03:07:43.066Z,19.31
2023-03-21T03:12:44.369Z,18.99
2023-03-21T03:17:41.705Z,18.73
2023-03-21T03:22:41.020Z,18.94
2023-03-21T03:27:41.310Z,19.00
2023-03-21T03:32:39.600Z,19.10
2023-03-21T03:37:39.922Z,19.13
2023-03-21T03:42:38.229Z,19.10
2023-03-21T03:47:42.048Z,18.88
2023-03-21T03:52:40.065Z,18.52
2023-03-21T03:57:35.888Z,18.45
2023-03-21T04:02:36.229Z,18.45
2023-03-21T04:07:36.344Z,18.36
2023-03-21T04:12:33.635Z,18.32
2023-03-21T04:17:32.957Z,18.26
2023-03-21T04:22:32.277Z,18.21
2023-03-21T04:27:32.608Z,18.15
2023-03-21T04:32:30.931Z,18.10
2023-03-21T04:37:31.250Z,18.05
2023-03-21T04:42:29.541Z,18.02
2023-03-21T04:47:29.844Z,17.99
2023-03-21T04:52:29.150Z,17.90
2023-03-21T04:57:28.455Z,17.86
2023-03-21T05:02:26.774Z,17.82
2023-03-21T05:07:28.070Z,17.77
2023-03-21T05:12:25.392Z,17.72
2023-03-21T05:17:24.866Z,17.64
2023-03-21T05:22:23.877Z,17.49
2023-03-21T05:27:23.993Z,17.34
2023-03-21T05:32:23.301Z,17.41
2023-03-21T05:37:21.612Z,17.44
2023-03-21T05:42:20.912Z,17.44
2023-03-21T05:47:20.126Z,17.46
2023-03-21T05:52:19.222Z,17.63
2023-03-21T05:57:19.528Z,17.79
2023-03-21T06:02:17.888Z,17.79
2023-03-21T06:07:16.974Z,17.92
2023-03-21T06:12:15.300Z,18.05
2023-03-21T06:17:15.644Z,18.15
2023-03-21T06:22:14.954Z,18.20
2023-03-21T06:27:15.282Z,18.18
2023-03-21T06:32:13.633Z,18.23
2023-03-21T06:37:12.748Z,18.27
2023-03-21T06:42:13.067Z,18.29
2023-03-21T06:47:11.406Z,18.35
2023-03-21T06:52:10.533Z,18.37
2023-03-21T06:57:09.835Z,18.41
2023-03-21T07:02:09.210Z,18.37
2023-03-21T07:07:08.345Z,18.33
2023-03-21T07:12:08.469Z,18.32
2023-03-21T07:17:07.755Z,18.39
2023-03-21T07:22:06.069Z,18.39
2023-03-21T07:27:05.373Z,18.44
2023-03-21T07:32:05.701Z,18.32
2023-03-21T07:37:04.061Z,18.32
2023-03-21T07:42:04.192Z,18.30
2023-03-21T07:47:04.528Z,18.48
2023-03-21T07:52:04.725Z,18.57
2023-03-21T07:57:01.030Z,18.37
2023-03-21T08:02:01.212Z,18.10
2023-03-21T08:07:01.386Z,18.05
2023-03-21T08:11:59.541Z,18.27
2023-03-21T08:16:58.702Z,18.50
2023-03-21T08:21:57.815Z,18.50
2023-03-21T08:26:56.168Z,18.44
2023-03-21T08:31:56.276Z,18.67
2023-03-21T08:36:53.712Z,18.45
2023-03-21T08:41:53.827Z,18.58
2023-03-21T08:46:54.006Z,18.63
2023-03-21T08:51:54.317Z,18.55
2023-03-21T08:56:51.624Z,18.73
2023-03-21T09:01:50.986Z,18.69
2023-03-21T09:06:50.152Z,18.85
2023-03-21T09:11:51.516Z,18.72
2023-03-21T09:16:49.757Z,18.47
2023-03-21T09:21:48.073Z,18.32
2023-03-21T09:26:48.407Z,18.27
2023-03-21T09:31:46.579Z,18.45
2023-03-21T09:36:45.730Z,18.58
2023-03-21T09:41:46.041Z,18.50
2023-03-21T09:46:44.384Z,18.63
2023-03-21T09:51:44.564Z,18.54
2023-03-21T09:56:44.733Z,18.70
2023-03-21T10:01:42.041Z,18.67
2023-03-21T10:06:42.168Z,18.73
2023-03-21T10:11:41.486Z,18.65
2023-03-21T10:16:40.844Z,18.51
2023-03-21T10:26:39.191Z,18.91
2023-03-21T10:31:37.527Z,18.91
2023-03-21T10:36:36.820Z,18.75
2023-03-21T10:41:36.171Z,18.63
2023-03-21T10:46:36.532Z,18.70
2023-03-21T10:51:34.482Z,18.57
2023-03-21T10:56:33.641Z,18.90
2023-03-21T11:01:32.939Z,19.16
2023-03-21T11:06:33.212Z,19.32
2023-03-21T11:11:31.355Z,19.14
2023-03-21T11:16:30.648Z,19.37
2023-03-21T11:21:30.829Z,19.32
2023-03-21T11:26:28.943Z,19.16
2023-03-21T11:31:28.263Z,19.18
2023-03-21T11:36:28.379Z,19.18
2023-03-21T11:41:26.722Z,19.25
2023-03-21T11:46:26.086Z,19.29
2023-03-21T11:51:25.277Z,19.44
2023-03-21T11:56:26.430Z,19.36
2023-03-21T12:01:23.535Z,19.44
2023-03-21T12:06:22.862Z,19.37
2023-03-21T12:11:22.265Z,19.40
2023-03-21T12:16:22.500Z,19.48
2023-03-21T12:21:22.678Z,19.40
2023-03-21T12:26:20.024Z,19.39
2023-03-21T12:31:19.205Z,19.44
2023-03-21T12:36:20.381Z,19.50
2023-03-21T12:41:17.536Z,19.40
2023-03-21T12:46:18.780Z,19.48
2023-03-21T12:51:15.945Z,19.41
2023-03-21T12:56:16.102Z,19.31
2023-03-21T13:01:15.259Z,19.29
2023-03-21T13:06:13.457Z,19.29
2023-03-21T13:11:13.607Z,19.31
2023-03-21T13:16:11.811Z,19.32
2023-03-21T13:21:09.948Z,19.33
2023-03-21T13:26:10.119Z,19.28
2023-03-21T13:31:09.258Z,19.26
2023-03-21T13:36:08.648Z,19.37
2023-03-21T13:41:09.809Z,19.33
2023-03-21T13:46:06.949Z,19.44
2023-03-21T13:51:07.074Z,19.46
2023-03-21T13:56:06.407Z,19.58
2023-03-21T14:01:04.758Z,19.37
2023-03-21T14:06:04.963Z,19.32
2023-03-21T14:11:04.119Z,19.28
2023-03-21T14:16:04.607Z,19.39
2023-03-21T14:21:05.014Z,19.37
2023-03-21T14:26:01.689Z,19.28
2023-03-21T14:31:02.073Z,19.26
2023-03-21T14:36:00.318Z,19.26
2023-03-21T14:40:58.454Z,19.40
2023-03-21T14:45:58.829Z,19.28
2023-03-21T14:50:56.954Z,19.37
2023-03-21T14:55:56.315Z,19.41
2023-03-21T15:00:55.429Z,19.44
2023-03-21T15:05:56.772Z,19.23
2023-03-21T15:11:06.241Z,19.22
2023-03-21T15:15:53.324Z,19.22
2023-03-21T15:20:53.494Z,19.19
2023-03-21T15:25:52.617Z,19.22
2023-03-21T15:30:52.055Z,19.13
2023-03-21T15:35:50.194Z,19.11
2023-03-21T15:40:50.303Z,19.18
2023-03-21T15:45:49.627Z,19.18
2023-03-21T15:50:47.917Z,19.14
2023-03-21T15:55:47.226Z,19.22
2023-03-21T16:00:46.659Z,19.19
2023-03-21T16:05:46.793Z,19.36
2023-03-21T16:10:46.093Z,19.39
2023-03-21T16:15:44.405Z,19.43
2023-03-21T16:20:43.738Z,19.32
2023-03-21T16:25:44.072Z,19.40
2023-03-21T16:30:44.365Z,19.29
2023-03-21T16:35:41.699Z,19.32
2023-03-21T16:40:41.104Z,19.36
2023-03-21T16:45:40.164Z,19.32
2023-03-21T16:50:39.480Z,19.37
2023-03-21T16:55:38.553Z,19.33
2023-03-21T17:00:38.100Z,19.33
2023-03-21T17:05:37.423Z,19.29
2023-03-21T17:10:37.658Z,19.25
2023-03-21T17:15:34.657Z,19.26
2023-03-21T17:20:36.473Z,19.25
2023-03-21T17:25:35.174Z,19.23
2023-03-21T17:30:35.595Z,19.22
2023-03-21T17:35:34.063Z,19.14
2023-03-21T17:40:32.430Z,19.18
2023-03-21T17:45:32.232Z,19.13
2023-03-21T17:50:30.898Z,19.25
2023-03-21T17:55:29.694Z,19.63
2023-03-21T18:00:29.001Z,20.24
2023-03-21T18:05:29.328Z,21.21
2023-03-21T18:10:28.663Z,21.68
2023-03-21T18:15:30.245Z,22.33
2023-03-21T18:20:44.698Z,22.97
2023-03-21T18:25:26.857Z,23.43
2023-03-21T18:30:47.394Z,23.32
2023-03-21T18:35:25.885Z,23.16
2023-03-21T18:40:24.502Z,23.42
2023-03-21T18:45:22.653Z,23.61
2023-03-21T18:50:22.088Z,24.30
2023-03-21T18:55:25.640Z,24.30
2023-03-21T19:00:21.079Z,24.03
2023-03-21T19:05:19.513Z,24.30
2023-03-21T19:10:20.358Z,24.40
2023-03-21T19:15:20.031Z,24.10
2023-03-21T19:20:17.676Z,23.90
2023-03-21T19:25:18.906Z,24.10
2023-03-21T19:30:17.085Z,23.94
2023-03-21T19:35:15.365Z,23.87
2023-03-21T19:40:14.254Z,23.91
2023-03-21T19:45:13.823Z,24.10
2023-03-21T19:50:49.210Z,24.34
2023-03-21T19:55:12.255Z,24.27
2023-03-21T20:00:11.636Z,24.06
2023-03-21T20:05:10.672Z,24.16
2023-03-21T20:10:09.464Z,24.47
2023-03-21T20:15:17.330Z,24.35
2023-03-21T20:20:08.977Z,24.13
2023-03-21T20:25:08.321Z,24.30
2023-03-21T20:30:09.473Z,25.00
2023-03-21T20:35:19.100Z,25.21
2023-03-21T20:40:05.612Z,25.00
2023-03-21T20:45:04.282Z,25.10
2023-03-21T20:50:07.972Z,25.47
2023-03-21T20:55:02.557Z,25.39
2023-03-21T21:00:03.149Z,24.88
2023-03-21T21:05:24.680Z,24.53
2023-03-21T21:10:01.644Z,24.68
2023-03-21T21:15:00.701Z,24.85
2023-03-21T21:19:58.945Z,25.10
2023-03-21T21:24:58.274Z,25.33
2023-03-21T21:29:58.198Z,25.40
2023-03-21T21:34:56.508Z,24.91
2023-03-21T21:39:55.840Z,25.30
2023-03-21T21:44:56.240Z,24.77
2023-03-21T21:49:55.337Z,24.87
2023-03-21T21:54:54.654Z,24.73
2023-03-21T21:59:54.118Z,24.57
2023-03-21T22:04:52.246Z,24.05
2023-03-21T22:09:52.559Z,23.66
2023-03-21T22:14:52.870Z,24.42
2023-03-21T22:20:04.638Z,25.02
2023-03-21T22:24:50.408Z,24.91
2023-03-21T22:29:48.796Z,24.96
2023-03-21T22:34:49.937Z,25.13
2023-03-21T22:39:48.276Z,24.12
2023-03-21T22:44:46.559Z,24.68
2023-03-21T22:49:45.878Z,24.35
2023-03-21T22:54:46.170Z,23.72
2023-03-21T22:59:44.466Z,23.88
2023-03-21T23:04:43.778Z,24.32
2023-03-21T23:09:43.161Z,24.71
2023-03-21T23:14:43.341Z,24.69
2023-03-21T23:19:41.431Z,24.42
2023-03-21T23:24:40.816Z,24.15
2023-03-21T23:29:39.906Z,24.27
2023-03-21T23:34:40.277Z,24.65
2023-03-21T23:39:39.404Z,25.03
2023-03-21T23:44:38.708Z,25.05
2023-03-21T23:49:37.007Z,25.32
2023-03-21T23:54:36.335Z,25.43
2023-03-21T23:59:38.662Z,25.80
